Albacete Airport

Airport
ICAO code: 
LEAB
IATA Code: 
ABC
Summary
ICAO Region: 
EUR
Territory: 
Location: 
Albacete, Castilla–La Mancha
Serving: 
Albacete
Elevation: 
2302 ft
Coordinates: 
Aerial View: 
38° 56' 57.985" N, 1° 51' 47.977" W
Metar
Observation
LEAB 270800Z 26012KT CAVOK 04/01 Q1006 NOSIG
Station
Albacete / Los Llanos
Date/Time
2021-11-27 08:00:00
Wind direction
260°
Wind speed
12 kts
Lowest cloud amount
clouds and visibility OK
Temperature
4°C
Dew point
1°C
Humidity
80%
QNH
1006 hPa
Weather condition
n/a

Albacete Airport is an airport located at the Los Llanos Air Base, about 4 miles south of the city of Albacete, Spain.

Climatology

Dry-summer subtropical ”Mediterranean" climate (Köppen climate classification Csa) - characterized by hot, dry summers and mild winters. During the summer, subtropical high pressure cells dominate, making rainfall unlikely except for the occasional thunderstorm. In the winter, periodic storms bring rain (snow at higher elevations).

Runways

Designator Length Width Surface Rops
9/27 2700 60 ASP No/No
Airport map: 
Aerial View: 

SKYbrary Partners:

Safety knowledge contributed by: